Pontyberem, United Kingdom
Current Conditions -  °F | °C
As of 11:50 AM on Thursday 27 Nov 2014 (Local Time) from EGOP Reporting Station
Clear Clear  
Wind Chill:   Ceiling: Unl
Heat Index:   Visibility: 6mi
Dew Point:   Wind: 9mph
Humidity: 87%   Direction: 100°E
Pressure: 29.53"   Gusts: NA
Location:  51.78°N, 4.17°W
Report Text: EGOP 271150Z AUTO 10008KT 9999 // NCD 09/07 Q1000
Loading
Personal Weather Stations






























Interactive Weather Map New forecast layout! Learn more

10-Day Weather Forecast

Advertisements
Track Severe Weather on mobile